createdAt,value
2022-11-28T00:03:51.223Z,100814.52
2022-11-28T00:08:57.810Z,100806.09
2022-11-28T00:14:01.251Z,100801.61
2022-11-28T00:19:05.987Z,100801.02
2022-11-28T00:24:10.037Z,100796.23
2022-11-28T00:29:13.627Z,100798.34
2022-11-28T00:34:24.318Z,100801.64
2022-11-28T00:39:28.021Z,100791.63
2022-11-28T00:44:31.596Z,100786.46
2022-11-28T00:49:35.362Z,100781.61
2022-11-28T00:54:39.005Z,100772.97
2022-11-28T00:59:42.429Z,100767.02
2022-11-28T01:04:45.558Z,100769.73
2022-11-28T01:09:48.577Z,100775.11
2022-11-28T01:14:51.725Z,100771.01
2022-11-28T01:19:55.040Z,100764.82
2022-11-28T01:24:58.174Z,100753.35
2022-11-28T01:30:01.568Z,100744.18
2022-11-28T01:35:05.274Z,100740.45
2022-11-28T01:40:10.815Z,100742.69
2022-11-28T01:45:24.693Z,100730.56
2022-11-28T01:50:29.803Z,100722.35
2022-11-28T01:55:40.287Z,100714.87
2022-11-28T02:00:43.846Z,100714.17
2022-11-28T02:05:48.910Z,100704.98
2022-11-28T02:11:24.933Z,100700.83
2022-11-28T02:17:01.472Z,100698.59
2022-11-28T02:22:29.614Z,100696.05
2022-11-28T02:28:14.029Z,100694.44
2022-11-28T02:33:46.403Z,100688.63
2022-11-28T02:39:32.102Z,100676.50
2022-11-28T02:44:44.975Z,100669.14
2022-11-28T02:50:12.337Z,100665.23
2022-11-28T02:55:16.669Z,100664.64
2022-11-28T03:00:36.889Z,100665.64
2022-11-28T03:05:51.371Z,100661.11
2022-11-28T03:11:21.078Z,100663.23
2022-11-28T03:16:31.751Z,100659.27
2022-11-28T03:21:53.543Z,100659.52
2022-11-28T03:27:17.041Z,100653.98
2022-11-28T03:32:25.688Z,100646.75
2022-11-28T03:37:36.528Z,100643.63
2022-11-28T03:42:48.053Z,100643.02
2022-11-28T03:48:01.201Z,100638.62
2022-11-28T03:53:13.740Z,100641.56
2022-11-28T03:58:17.417Z,100641.31
2022-11-28T04:03:47.050Z,100639.38
2022-11-28T04:09:14.329Z,100638.28
2022-11-28T04:14:29.704Z,100638.08
2022-11-28T04:19:43.481Z,100633.98
2022-11-28T04:24:54.253Z,100637.58
2022-11-28T04:30:01.472Z,100628.65
2022-11-28T04:35:11.677Z,100631.14
2022-11-28T04:40:16.932Z,100620.25
2022-11-28T04:45:37.854Z,100617.17
2022-11-28T04:51:01.854Z,100617.72
2022-11-28T04:56:22.266Z,100622.48
2022-11-28T05:01:29.589Z,100618.79
2022-11-28T05:06:37.134Z,100615.33
2022-11-28T05:11:40.704Z,100613.88
2022-11-28T05:16:44.243Z,100606.48
2022-11-28T05:21:48.020Z,100606.09
2022-11-28T05:26:51.699Z,100610.09
2022-11-28T05:31:55.374Z,100612.87
2022-11-28T05:36:59.277Z,100609.52
2022-11-28T05:42:02.779Z,100608.36
2022-11-28T05:47:06.217Z,100608.96
2022-11-28T05:52:09.633Z,100605.60
2022-11-28T05:57:12.603Z,100603.61
2022-11-28T06:02:15.717Z,100601.83
2022-11-28T06:07:20.033Z,100597.31
2022-11-28T06:12:23.326Z,100592.14
2022-11-28T06:17:26.737Z,100587.50
2022-11-28T06:22:30.025Z,100588.73
2022-11-28T06:27:35.495Z,100588.93
2022-11-28T06:32:38.998Z,100588.67
2022-11-28T06:37:42.345Z,100591.94
2022-11-28T06:42:45.598Z,100592.00
2022-11-28T06:47:48.657Z,100589.44
2022-11-28T06:52:52.052Z,100589.98
2022-11-28T06:57:55.749Z,100588.88
2022-11-28T07:02:59.692Z,100584.96
2022-11-28T07:08:03.560Z,100585.91
2022-11-28T07:13:07.837Z,100587.77
2022-11-28T07:18:11.076Z,100584.39
2022-11-28T07:23:14.335Z,100577.08
2022-11-28T07:28:21.929Z,100572.95
2022-11-28T07:33:26.773Z,100571.58
2022-11-28T07:38:30.603Z,100563.96
2022-11-28T07:43:34.668Z,100563.22
2022-11-28T07:48:38.188Z,100558.55
2022-11-28T07:53:42.724Z,100557.34
2022-11-28T07:58:47.627Z,100555.73
2022-11-28T08:03:52.804Z,100548.20
2022-11-28T08:08:57.731Z,100541.80
2022-11-28T08:14:01.066Z,100539.07
2022-11-28T08:19:04.173Z,100536.23
2022-11-28T08:24:10.692Z,100533.77
2022-11-28T08:29:14.083Z,100532.63
2022-11-28T08:34:18.526Z,100533.50
2022-11-28T08:39:24.851Z,100536.13
2022-11-28T08:44:31.872Z,100532.19
2022-11-28T08:49:37.280Z,100531.32
2022-11-28T08:54:41.868Z,100530.84
2022-11-28T08:59:45.728Z,100528.98
2022-11-28T09:04:49.352Z,100522.53
2022-11-28T09:09:52.750Z,100518.02
2022-11-28T09:14:56.430Z,100512.06
2022-11-28T09:19:59.777Z,100512.61
2022-11-28T09:25:04.084Z,100510.31
2022-11-28T09:30:09.814Z,100510.02
2022-11-28T09:35:13.212Z,100506.93
2022-11-28T09:40:35.099Z,100507.81
2022-11-28T09:45:38.601Z,100504.02
2022-11-28T09:50:43.343Z,100498.27
2022-11-28T09:55:52.701Z,100495.61
2022-11-28T10:01:05.299Z,100488.73
2022-11-28T10:06:31.788Z,100483.36
2022-11-28T10:11:42.959Z,100478.73
2022-11-28T10:17:16.122Z,100475.20
2022-11-28T10:22:28.101Z,100469.81
2022-11-28T10:27:35.630Z,100463.00
2022-11-28T10:32:42.767Z,100460.27
2022-11-28T10:37:46.319Z,100457.44
2022-11-28T10:42:57.108Z,100454.81
2022-11-28T11:01:51.685Z,100444.58
2022-11-28T11:07:19.516Z,100443.08
2022-11-28T11:12:31.062Z,100444.96
2022-11-28T11:17:38.348Z,100443.23
2022-11-28T11:23:02.402Z,100441.35
2022-11-28T11:28:06.307Z,100435.27
2022-11-28T11:33:18.119Z,100434.16
2022-11-28T11:38:21.509Z,100436.82
2022-11-28T11:43:38.360Z,100435.87
2022-11-28T11:48:44.782Z,100429.64
2022-11-28T11:53:48.685Z,100423.86
2022-11-28T11:58:55.698Z,100433.60
2022-11-28T12:04:37.132Z,100431.51
2022-11-28T12:09:47.355Z,100427.02
2022-11-28T12:14:53.886Z,100415.11
2022-11-28T12:20:25.748Z,100408.98
2022-11-28T12:25:56.897Z,100404.02
2022-11-28T12:31:22.258Z,100408.51
2022-11-28T12:36:44.044Z,100405.72
2022-11-28T12:42:16.988Z,100405.64
2022-11-28T12:47:36.352Z,100402.16
2022-11-28T12:53:09.863Z,100396.95
2022-11-28T12:58:25.180Z,100398.79
2022-11-28T13:04:19.918Z,100395.29
2022-11-28T13:09:49.317Z,100394.29
2022-11-28T13:14:58.428Z,100388.52
2022-11-28T13:20:13.338Z,100387.53
2022-11-28T13:25:40.810Z,100384.77
2022-11-28T13:30:55.659Z,100383.73
2022-11-28T13:36:01.596Z,100382.08
2022-11-28T13:41:53.327Z,100379.89
2022-11-28T13:46:51.632Z,100380.34
2022-11-28T13:52:17.025Z,100378.06
2022-11-28T13:57:39.809Z,100376.11
2022-11-28T14:02:53.711Z,100377.50
2022-11-28T14:07:58.657Z,100372.14
2022-11-28T14:13:24.765Z,100373.20
2022-11-28T14:24:13.440Z,100362.89
2022-11-28T14:29:38.075Z,100362.30
2022-11-28T14:34:47.337Z,100361.73
2022-11-28T14:39:52.667Z,100360.20
2022-11-28T14:45:08.143Z,100363.86
2022-11-28T14:50:14.248Z,100367.20
2022-11-28T14:55:22.565Z,100366.31
2022-11-28T15:00:29.786Z,100365.02
2022-11-28T15:06:10.345Z,100366.68
2022-11-28T15:11:59.657Z,100368.89
2022-11-28T15:17:07.324Z,100363.39
2022-11-28T15:22:33.187Z,100365.05
2022-11-28T15:27:36.759Z,100360.65
2022-11-28T15:32:42.899Z,100362.52
2022-11-28T15:37:52.425Z,100364.44
2022-11-28T15:42:58.203Z,100367.61
2022-11-28T15:48:05.675Z,100367.13
2022-11-28T15:53:20.119Z,100366.80
2022-11-28T15:58:32.201Z,100364.79
2022-11-28T16:03:55.956Z,100355.30
2022-11-28T16:09:10.210Z,100357.63
2022-11-28T16:14:35.758Z,100355.48
2022-11-28T16:19:40.811Z,100359.06
2022-11-28T16:24:57.112Z,100361.98
2022-11-28T16:30:01.443Z,100366.96
2022-11-28T16:35:07.775Z,100363.96
2022-11-28T16:40:24.959Z,100365.55
2022-11-28T16:45:33.835Z,100371.83
2022-11-28T16:50:40.497Z,100369.69
2022-11-28T16:55:45.804Z,100371.08
2022-11-28T17:01:03.923Z,100367.27
2022-11-28T17:06:22.226Z,100368.30
2022-11-28T17:11:30.347Z,100369.30
2022-11-28T17:16:36.444Z,100365.84
2022-11-28T17:21:44.889Z,100368.73
2022-11-28T17:26:50.825Z,100372.95
2022-11-28T17:31:58.165Z,100373.70
2022-11-28T17:37:04.517Z,100376.30
2022-11-28T17:42:11.490Z,100385.37
2022-11-28T17:47:16.253Z,100385.07
2022-11-28T17:52:22.138Z,100384.05
2022-11-28T17:57:25.949Z,100389.94
2022-11-28T18:02:30.150Z,100387.67
2022-11-28T18:07:38.053Z,100383.67
2022-11-28T18:12:44.037Z,100379.80
2022-11-28T18:17:48.917Z,100376.31
2022-11-28T18:22:53.234Z,100381.80
2022-11-28T18:27:57.312Z,100384.29
2022-11-28T18:33:01.376Z,100378.27
2022-11-28T18:38:06.534Z,100381.99
2022-11-28T18:43:12.360Z,100379.29
2022-11-28T18:48:16.624Z,100383.27
2022-11-28T18:53:20.243Z,100386.18
2022-11-28T18:58:23.750Z,100375.28
2022-11-28T19:03:27.276Z,100374.93
2022-11-28T19:08:31.197Z,100376.05
2022-11-28T19:13:39.666Z,100379.44
2022-11-28T19:18:44.590Z,100378.52
2022-11-28T19:23:48.784Z,100376.91
2022-11-28T19:28:52.891Z,100378.52
2022-11-28T19:34:04.920Z,100370.44
2022-11-28T19:39:26.869Z,100370.94
2022-11-28T19:44:30.964Z,100370.81
2022-11-28T19:49:35.913Z,100370.59
2022-11-28T19:54:40.195Z,100364.60
2022-11-28T19:59:44.763Z,100364.48
2022-11-28T20:04:48.802Z,100366.09
2022-11-28T20:09:53.470Z,100366.66
2022-11-28T20:14:57.211Z,100370.90
2022-11-28T20:20:01.341Z,100373.09
2022-11-28T20:25:05.608Z,100369.64
2022-11-28T20:30:10.177Z,100367.30
2022-11-28T20:35:14.009Z,100374.44
2022-11-28T20:40:18.268Z,100370.33
2022-11-28T20:45:22.852Z,100372.20
2022-11-28T20:50:26.342Z,100370.74
2022-11-28T20:55:30.122Z,100379.52
2022-11-28T21:00:33.582Z,100379.85
2022-11-28T21:05:37.424Z,100379.60
2022-11-28T21:10:40.929Z,100380.45
2022-11-28T21:15:46.131Z,100378.70
2022-11-28T21:20:50.044Z,100381.71
2022-11-28T21:25:55.432Z,100381.58
2022-11-28T21:30:58.819Z,100387.86
2022-11-28T21:36:03.604Z,100390.70
2022-11-28T21:41:07.420Z,100388.13
2022-11-28T21:46:12.097Z,100385.06
2022-11-28T21:51:17.963Z,100388.16
2022-11-28T21:56:22.342Z,100389.96
2022-11-28T22:01:26.232Z,100388.66
2022-11-28T22:06:30.141Z,100390.08
2022-11-28T22:11:33.654Z,100392.35
2022-11-28T22:16:37.513Z,100387.91
2022-11-28T22:21:52.646Z,100389.33
2022-11-28T22:26:59.820Z,100389.25
2022-11-28T22:32:03.402Z,100387.52
2022-11-28T22:37:07.212Z,100386.40
2022-11-28T22:42:10.347Z,100383.97
2022-11-28T22:47:13.612Z,100389.20
2022-11-28T22:52:17.092Z,100386.13
2022-11-28T22:57:20.498Z,100388.79
2022-11-28T23:02:24.146Z,100388.18
2022-11-28T23:07:27.780Z,100393.73
2022-11-28T23:12:31.120Z,100388.91
2022-11-28T23:17:35.040Z,100387.77
2022-11-28T23:22:38.493Z,100385.21
2022-11-28T23:27:41.674Z,100389.84
2022-11-28T23:32:45.029Z,100384.48
2022-11-28T23:37:48.719Z,100387.88
2022-11-28T23:42:52.256Z,100382.91
2022-11-28T23:47:55.524Z,100383.01
2022-11-28T23:52:58.887Z,100381.66
2022-11-28T23:58:02.650Z,100381.67
